sensor_id;sensor_type;location;lat;lon;timestamp;P1;durP1;ratioP1;P2;durP2;ratioP2
45065;SDS011;30830;53.704;10.004;2023-11-19T00:02:11;6.68;;;5.43;;
45065;SDS011;30830;53.704;10.004;2023-11-19T00:04:37;7.50;;;5.18;;
45065;SDS011;30830;53.704;10.004;2023-11-19T00:07:04;6.90;;;4.90;;
45065;SDS011;30830;53.704;10.004;2023-11-19T00:09:32;6.10;;;4.55;;
45065;SDS011;30830;53.704;10.004;2023-11-19T00:11:58;8.02;;;5.43;;
45065;SDS011;30830;53.704;10.004;2023-11-19T00:14:25;6.85;;;4.65;;
45065;SDS011;30830;53.704;10.004;2023-11-19T00:16:51;7.45;;;5.05;;
45065;SDS011;30830;53.704;10.004;2023-11-19T00:19:17;7.40;;;5.07;;
45065;SDS011;30830;53.704;10.004;2023-11-19T00:21:42;5.03;;;3.72;;
45065;SDS011;30830;53.704;10.004;2023-11-19T00:24:08;3.88;;;3.38;;
45065;SDS011;30830;53.704;10.004;2023-11-19T00:26:34;4.85;;;4.03;;
45065;SDS011;30830;53.704;10.004;2023-11-19T00:28:59;5.60;;;3.60;;
45065;SDS011;30830;53.704;10.004;2023-11-19T00:31:25;3.30;;;3.00;;
45065;SDS011;30830;53.704;10.004;2023-11-19T00:33:52;4.35;;;3.38;;
45065;SDS011;30830;53.704;10.004;2023-11-19T00:36:18;3.70;;;3.03;;
45065;SDS011;30830;53.704;10.004;2023-11-19T00:38:44;4.28;;;2.92;;
45065;SDS011;30830;53.704;10.004;2023-11-19T00:41:09;4.25;;;3.33;;
45065;SDS011;30830;53.704;10.004;2023-11-19T00:43:35;5.50;;;3.63;;
45065;SDS011;30830;53.704;10.004;2023-11-19T00:46:01;2.83;;;2.50;;
45065;SDS011;30830;53.704;10.004;2023-11-19T00:48:28;3.40;;;3.03;;
45065;SDS011;30830;53.704;10.004;2023-11-19T00:50:53;5.03;;;3.75;;
45065;SDS011;30830;53.704;10.004;2023-11-19T00:53:19;3.78;;;2.92;;
45065;SDS011;30830;53.704;10.004;2023-11-19T00:55:44;5.30;;;3.65;;
45065;SDS011;30830;53.704;10.004;2023-11-19T00:58:10;4.03;;;3.13;;
45065;SDS011;30830;53.704;10.004;2023-11-19T01:00:35;4.03;;;3.00;;
45065;SDS011;30830;53.704;10.004;2023-11-19T01:03:01;2.45;;;2.25;;
45065;SDS011;30830;53.704;10.004;2023-11-19T01:05:26;3.05;;;2.45;;
45065;SDS011;30830;53.704;10.004;2023-11-19T01:07:53;3.47;;;2.38;;
45065;SDS011;30830;53.704;10.004;2023-11-19T01:10:19;5.80;;;2.30;;
45065;SDS011;30830;53.704;10.004;2023-11-19T01:12:45;3.50;;;2.40;;
45065;SDS011;30830;53.704;10.004;2023-11-19T01:15:11;2.50;;;2.20;;
45065;SDS011;30830;53.704;10.004;2023-11-19T01:17:38;3.63;;;1.67;;
45065;SDS011;30830;53.704;10.004;2023-11-19T01:20:04;2.10;;;1.90;;
45065;SDS011;30830;53.704;10.004;2023-11-19T01:22:31;2.83;;;1.80;;
45065;SDS011;30830;53.704;10.004;2023-11-19T01:24:57;2.97;;;1.75;;
45065;SDS011;30830;53.704;10.004;2023-11-19T01:27:23;2.35;;;2.00;;
45065;SDS011;30830;53.704;10.004;2023-11-19T01:29:49;2.78;;;2.05;;
45065;SDS011;30830;53.704;10.004;2023-11-19T01:32:15;4.15;;;2.03;;
45065;SDS011;30830;53.704;10.004;2023-11-19T01:34:40;1.83;;;1.70;;
45065;SDS011;30830;53.704;10.004;2023-11-19T01:37:06;2.10;;;1.90;;
45065;SDS011;30830;53.704;10.004;2023-11-19T01:39:34;1.98;;;1.38;;
45065;SDS011;30830;53.704;10.004;2023-11-19T01:41:59;1.20;;;1.08;;
45065;SDS011;30830;53.704;10.004;2023-11-19T01:44:25;6.47;;;1.52;;
45065;SDS011;30830;53.704;10.004;2023-11-19T01:46:50;1.50;;;1.40;;
45065;SDS011;30830;53.704;10.004;2023-11-19T01:49:17;3.17;;;1.35;;
45065;SDS011;30830;53.704;10.004;2023-11-19T01:51:44;2.03;;;1.50;;
45065;SDS011;30830;53.704;10.004;2023-11-19T01:54:10;1.58;;;1.33;;
45065;SDS011;30830;53.704;10.004;2023-11-19T01:56:37;1.60;;;1.05;;
45065;SDS011;30830;53.704;10.004;2023-11-19T01:59:05;1.95;;;1.33;;
45065;SDS011;30830;53.704;10.004;2023-11-19T02:01:34;1.55;;;1.10;;
45065;SDS011;30830;53.704;10.004;2023-11-19T02:04:04;2.72;;;1.08;;
45065;SDS011;30830;53.704;10.004;2023-11-19T02:06:33;1.50;;;1.20;;
45065;SDS011;30830;53.704;10.004;2023-11-19T02:09:01;1.20;;;1.10;;
45065;SDS011;30830;53.704;10.004;2023-11-19T02:11:32;1.63;;;1.13;;
45065;SDS011;30830;53.704;10.004;2023-11-19T02:13:58;1.48;;;1.10;;
45065;SDS011;30830;53.704;10.004;2023-11-19T02:16:24;0.80;;;0.80;;
45065;SDS011;30830;53.704;10.004;2023-11-19T02:18:49;0.88;;;0.88;;
45065;SDS011;30830;53.704;10.004;2023-11-19T02:21:15;1.05;;;0.95;;
45065;SDS011;30830;53.704;10.004;2023-11-19T02:23:42;1.58;;;1.02;;
45065;SDS011;30830;53.704;10.004;2023-11-19T02:28:39;0.95;;;0.80;;
45065;SDS011;30830;53.704;10.004;2023-11-19T02:31:07;0.60;;;0.60;;
45065;SDS011;30830;53.704;10.004;2023-11-19T02:33:36;1.45;;;0.90;;
45065;SDS011;30830;53.704;10.004;2023-11-19T02:36:03;0.88;;;0.77;;
45065;SDS011;30830;53.704;10.004;2023-11-19T02:38:33;1.15;;;0.93;;
45065;SDS011;30830;53.704;10.004;2023-11-19T02:40:59;0.60;;;0.60;;
45065;SDS011;30830;53.704;10.004;2023-11-19T02:43:29;0.80;;;0.70;;
45065;SDS011;30830;53.704;10.004;2023-11-19T02:45:58;1.73;;;0.90;;
45065;SDS011;30830;53.704;10.004;2023-11-19T02:48:34;1.20;;;0.80;;
45065;SDS011;30830;53.704;10.004;2023-11-19T02:51:03;0.57;;;0.57;;
45065;SDS011;30830;53.704;10.004;2023-11-19T02:53:29;0.95;;;0.70;;
45065;SDS011;30830;53.704;10.004;2023-11-19T02:55:55;0.60;;;0.40;;
45065;SDS011;30830;53.704;10.004;2023-11-19T02:58:27;1.10;;;0.52;;
45065;SDS011;30830;53.704;10.004;2023-11-19T03:00:54;1.95;;;0.80;;
45065;SDS011;30830;53.704;10.004;2023-11-19T03:03:25;1.02;;;0.60;;
45065;SDS011;30830;53.704;10.004;2023-11-19T03:06:03;0.90;;;0.80;;
45065;SDS011;30830;53.704;10.004;2023-11-19T03:08:32;1.20;;;0.90;;
45065;SDS011;30830;53.704;10.004;2023-11-19T03:11:00;0.77;;;0.77;;
45065;SDS011;30830;53.704;10.004;2023-11-19T03:13:25;0.68;;;0.68;;
45065;SDS011;30830;53.704;10.004;2023-11-19T03:15:51;0.55;;;0.55;;
45065;SDS011;30830;53.704;10.004;2023-11-19T03:18:18;0.80;;;0.80;;
45065;SDS011;30830;53.704;10.004;2023-11-19T03:20:45;0.80;;;0.80;;
45065;SDS011;30830;53.704;10.004;2023-11-19T03:23:11;0.60;;;0.60;;
45065;SDS011;30830;53.704;10.004;2023-11-19T03:25:37;1.02;;;0.80;;
45065;SDS011;30830;53.704;10.004;2023-11-19T03:28:03;1.02;;;0.95;;
45065;SDS011;30830;53.704;10.004;2023-11-19T03:30:29;1.10;;;1.00;;
45065;SDS011;30830;53.704;10.004;2023-11-19T03:32:55;1.80;;;1.23;;
45065;SDS011;30830;53.704;10.004;2023-11-19T03:35:22;1.17;;;1.08;;
45065;SDS011;30830;53.704;10.004;2023-11-19T03:37:48;1.38;;;1.10;;
45065;SDS011;30830;53.704;10.004;2023-11-19T03:40:13;1.33;;;1.20;;
45065;SDS011;30830;53.704;10.004;2023-11-19T03:42:39;1.67;;;1.10;;
45065;SDS011;30830;53.704;10.004;2023-11-19T03:45:08;1.40;;;1.30;;
45065;SDS011;30830;53.704;10.004;2023-11-19T03:47:34;1.48;;;1.38;;
45065;SDS011;30830;53.704;10.004;2023-11-19T03:50:00;1.45;;;1.20;;
45065;SDS011;30830;53.704;10.004;2023-11-19T03:52:26;1.40;;;1.30;;
45065;SDS011;30830;53.704;10.004;2023-11-19T03:54:54;1.70;;;1.60;;
45065;SDS011;30830;53.704;10.004;2023-11-19T03:57:21;1.73;;;1.60;;
45065;SDS011;30830;53.704;10.004;2023-11-19T03:59:47;1.70;;;1.60;;
45065;SDS011;30830;53.704;10.004;2023-11-19T04:02:13;1.90;;;1.80;;
45065;SDS011;30830;53.704;10.004;2023-11-19T04:04:38;2.20;;;2.00;;
45065;SDS011;30830;53.704;10.004;2023-11-19T04:07:04;1.88;;;1.77;;
45065;SDS011;30830;53.704;10.004;2023-11-19T04:09:31;2.20;;;2.00;;
45065;SDS011;30830;53.704;10.004;2023-11-19T04:11:59;2.42;;;2.22;;
45065;SDS011;30830;53.704;10.004;2023-11-19T04:14:25;2.28;;;2.00;;
45065;SDS011;30830;53.704;10.004;2023-11-19T04:16:51;2.97;;;2.53;;
45065;SDS011;30830;53.704;10.004;2023-11-19T04:19:18;4.68;;;2.85;;
45065;SDS011;30830;53.704;10.004;2023-11-19T04:21:47;3.47;;;3.10;;
45065;SDS011;30830;53.704;10.004;2023-11-19T04:24:12;2.75;;;2.53;;
45065;SDS011;30830;53.704;10.004;2023-11-19T04:26:42;3.40;;;3.10;;
45065;SDS011;30830;53.704;10.004;2023-11-19T04:29:09;3.70;;;3.40;;
45065;SDS011;30830;53.704;10.004;2023-11-19T04:31:39;5.25;;;3.45;;
45065;SDS011;30830;53.704;10.004;2023-11-19T04:34:06;6.82;;;3.60;;
45065;SDS011;30830;53.704;10.004;2023-11-19T04:36:31;4.55;;;3.88;;
45065;SDS011;30830;53.704;10.004;2023-11-19T04:39:00;3.90;;;3.58;;
45065;SDS011;30830;53.704;10.004;2023-11-19T04:41:26;3.80;;;3.50;;
45065;SDS011;30830;53.704;10.004;2023-11-19T04:43:55;4.13;;;3.72;;
45065;SDS011;30830;53.704;10.004;2023-11-19T04:46:20;3.70;;;3.40;;
45065;SDS011;30830;53.704;10.004;2023-11-19T04:48:46;4.53;;;3.88;;
45065;SDS011;30830;53.704;10.004;2023-11-19T04:51:12;4.88;;;4.30;;
45065;SDS011;30830;53.704;10.004;2023-11-19T04:53:37;5.15;;;4.55;;
45065;SDS011;30830;53.704;10.004;2023-11-19T04:56:12;6.50;;;4.70;;
45065;SDS011;30830;53.704;10.004;2023-11-19T04:58:38;5.50;;;4.80;;
45065;SDS011;30830;53.704;10.004;2023-11-19T05:01:04;6.65;;;4.95;;
45065;SDS011;30830;53.704;10.004;2023-11-19T05:03:30;6.78;;;5.60;;
45065;SDS011;30830;53.704;10.004;2023-11-19T05:05:56;7.53;;;5.97;;
45065;SDS011;30830;53.704;10.004;2023-11-19T05:08:22;6.22;;;5.63;;
45065;SDS011;30830;53.704;10.004;2023-11-19T05:10:48;7.70;;;6.07;;
45065;SDS011;30830;53.704;10.004;2023-11-19T05:13:13;6.80;;;5.57;;
45065;SDS011;30830;53.704;10.004;2023-11-19T05:15:40;9.68;;;7.03;;
45065;SDS011;30830;53.704;10.004;2023-11-19T05:18:05;8.73;;;6.03;;
45065;SDS011;30830;53.704;10.004;2023-11-19T05:20:31;9.27;;;6.53;;
45065;SDS011;30830;53.704;10.004;2023-11-19T05:22:56;7.80;;;6.57;;
45065;SDS011;30830;53.704;10.004;2023-11-19T05:25:25;9.68;;;6.18;;
45065;SDS011;30830;53.704;10.004;2023-11-19T05:27:51;14.15;;;7.68;;
45065;SDS011;30830;53.704;10.004;2023-11-19T05:30:17;8.43;;;7.18;;
45065;SDS011;30830;53.704;10.004;2023-11-19T05:32:43;10.52;;;7.82;;
45065;SDS011;30830;53.704;10.004;2023-11-19T05:35:08;10.77;;;7.85;;
45065;SDS011;30830;53.704;10.004;2023-11-19T05:37:34;11.65;;;8.40;;
45065;SDS011;30830;53.704;10.004;2023-11-19T05:40:00;10.65;;;8.05;;
45065;SDS011;30830;53.704;10.004;2023-11-19T05:42:28;11.30;;;8.52;;
45065;SDS011;30830;53.704;10.004;2023-11-19T05:44:53;13.85;;;9.23;;
45065;SDS011;30830;53.704;10.004;2023-11-19T05:47:19;12.48;;;9.07;;
45065;SDS011;30830;53.704;10.004;2023-11-19T05:49:44;12.73;;;8.90;;
45065;SDS011;30830;53.704;10.004;2023-11-19T05:52:10;10.60;;;7.70;;
45065;SDS011;30830;53.704;10.004;2023-11-19T05:54:37;11.05;;;8.27;;
45065;SDS011;30830;53.704;10.004;2023-11-19T05:57:04;13.30;;;8.73;;
45065;SDS011;30830;53.704;10.004;2023-11-19T05:59:30;10.85;;;8.20;;
45065;SDS011;30830;53.704;10.004;2023-11-19T06:01:57;11.43;;;8.77;;
45065;SDS011;30830;53.704;10.004;2023-11-19T06:04:22;13.10;;;8.52;;
45065;SDS011;30830;53.704;10.004;2023-11-19T06:06:48;10.63;;;8.18;;
45065;SDS011;30830;53.704;10.004;2023-11-19T06:09:13;15.15;;;8.63;;
45065;SDS011;30830;53.704;10.004;2023-11-19T06:11:39;16.48;;;8.32;;
45065;SDS011;30830;53.704;10.004;2023-11-19T06:14:05;15.02;;;8.65;;
45065;SDS011;30830;53.704;10.004;2023-11-19T06:16:32;14.25;;;8.60;;
45065;SDS011;30830;53.704;10.004;2023-11-19T06:18:57;12.93;;;9.40;;
45065;SDS011;30830;53.704;10.004;2023-11-19T06:21:23;12.75;;;8.38;;
45065;SDS011;30830;53.704;10.004;2023-11-19T06:23:49;10.85;;;8.23;;
45065;SDS011;30830;53.704;10.004;2023-11-19T06:26:17;14.40;;;9.60;;
45065;SDS011;30830;53.704;10.004;2023-11-19T06:28:43;14.90;;;9.95;;
45065;SDS011;30830;53.704;10.004;2023-11-19T06:31:09;21.25;;;10.18;;
45065;SDS011;30830;53.704;10.004;2023-11-19T06:33:34;20.08;;;10.32;;
45065;SDS011;30830;53.704;10.004;2023-11-19T06:36:00;15.05;;;9.77;;
45065;SDS011;30830;53.704;10.004;2023-11-19T06:38:25;17.65;;;10.07;;
45065;SDS011;30830;53.704;10.004;2023-11-19T06:40:51;19.50;;;10.68;;
45065;SDS011;30830;53.704;10.004;2023-11-19T06:43:16;22.50;;;10.50;;
45065;SDS011;30830;53.704;10.004;2023-11-19T06:45:42;17.80;;;9.20;;
45065;SDS011;30830;53.704;10.004;2023-11-19T06:48:08;18.67;;;9.77;;
45065;SDS011;30830;53.704;10.004;2023-11-19T06:50:33;25.73;;;8.60;;
45065;SDS011;30830;53.704;10.004;2023-11-19T06:52:59;19.05;;;9.02;;
45065;SDS011;30830;53.704;10.004;2023-11-19T06:55:25;18.40;;;9.57;;
45065;SDS011;30830;53.704;10.004;2023-11-19T06:57:51;15.38;;;7.53;;
45065;SDS011;30830;53.704;10.004;2023-11-19T07:00:17;17.10;;;7.95;;
45065;SDS011;30830;53.704;10.004;2023-11-19T07:02:43;18.08;;;7.53;;
45065;SDS011;30830;53.704;10.004;2023-11-19T07:05:09;20.40;;;7.28;;
45065;SDS011;30830;53.704;10.004;2023-11-19T07:07:37;22.65;;;7.63;;
45065;SDS011;30830;53.704;10.004;2023-11-19T07:10:02;16.75;;;7.03;;
45065;SDS011;30830;53.704;10.004;2023-11-19T07:12:29;16.25;;;6.20;;
45065;SDS011;30830;53.704;10.004;2023-11-19T07:14:55;11.10;;;5.22;;
45065;SDS011;30830;53.704;10.004;2023-11-19T07:17:21;19.45;;;6.10;;
45065;SDS011;30830;53.704;10.004;2023-11-19T07:19:47;23.33;;;5.45;;
45065;SDS011;30830;53.704;10.004;2023-11-19T07:22:14;23.67;;;6.15;;
45065;SDS011;30830;53.704;10.004;2023-11-19T07:24:40;22.45;;;6.05;;
45065;SDS011;30830;53.704;10.004;2023-11-19T07:27:06;28.80;;;5.05;;
45065;SDS011;30830;53.704;10.004;2023-11-19T07:29:33;21.77;;;5.57;;
45065;SDS011;30830;53.704;10.004;2023-11-19T07:31:59;26.00;;;5.60;;
45065;SDS011;30830;53.704;10.004;2023-11-19T07:34:26;26.15;;;5.68;;
45065;SDS011;30830;53.704;10.004;2023-11-19T07:36:52;19.70;;;5.60;;
45065;SDS011;30830;53.704;10.004;2023-11-19T07:39:18;32.72;;;5.55;;
45065;SDS011;30830;53.704;10.004;2023-11-19T07:41:45;23.25;;;4.30;;
45065;SDS011;30830;53.704;10.004;2023-11-19T07:44:11;22.58;;;5.05;;
45065;SDS011;30830;53.704;10.004;2023-11-19T07:46:36;29.58;;;5.78;;
45065;SDS011;30830;53.704;10.004;2023-11-19T07:49:02;25.20;;;5.22;;
45065;SDS011;30830;53.704;10.004;2023-11-19T07:51:28;11.82;;;4.32;;
45065;SDS011;30830;53.704;10.004;2023-11-19T07:53:53;20.27;;;4.10;;
45065;SDS011;30830;53.704;10.004;2023-11-19T07:56:19;27.90;;;6.13;;
45065;SDS011;30830;53.704;10.004;2023-11-19T07:58:44;21.67;;;4.43;;
45065;SDS011;30830;53.704;10.004;2023-11-19T08:01:10;17.05;;;4.35;;
45065;SDS011;30830;53.704;10.004;2023-11-19T08:03:35;19.80;;;5.15;;
45065;SDS011;30830;53.704;10.004;2023-11-19T08:06:01;19.60;;;4.65;;
45065;SDS011;30830;53.704;10.004;2023-11-19T08:08:28;14.63;;;4.38;;
45065;SDS011;30830;53.704;10.004;2023-11-19T08:10:58;22.02;;;4.68;;
45065;SDS011;30830;53.704;10.004;2023-11-19T08:13:24;21.63;;;4.78;;
45065;SDS011;30830;53.704;10.004;2023-11-19T08:15:50;29.75;;;5.18;;
45065;SDS011;30830;53.704;10.004;2023-11-19T08:18:16;26.48;;;5.22;;
45065;SDS011;30830;53.704;10.004;2023-11-19T08:20:43;20.83;;;5.03;;
45065;SDS011;30830;53.704;10.004;2023-11-19T08:23:09;23.65;;;5.38;;
45065;SDS011;30830;53.704;10.004;2023-11-19T08:25:35;27.30;;;4.05;;
45065;SDS011;30830;53.704;10.004;2023-11-19T08:28:01;25.35;;;5.28;;
45065;SDS011;30830;53.704;10.004;2023-11-19T08:30:28;25.90;;;5.20;;
45065;SDS011;30830;53.704;10.004;2023-11-19T08:32:54;26.23;;;5.60;;
45065;SDS011;30830;53.704;10.004;2023-11-19T08:35:19;21.73;;;5.03;;
45065;SDS011;30830;53.704;10.004;2023-11-19T08:37:45;23.13;;;5.43;;
45065;SDS011;30830;53.704;10.004;2023-11-19T08:40:11;24.80;;;4.60;;
45065;SDS011;30830;53.704;10.004;2023-11-19T08:42:39;21.92;;;4.90;;
45065;SDS011;30830;53.704;10.004;2023-11-19T08:45:06;21.88;;;5.22;;
45065;SDS011;30830;53.704;10.004;2023-11-19T08:47:35;17.42;;;4.72;;
45065;SDS011;30830;53.704;10.004;2023-11-19T08:50:00;31.63;;;5.22;;
45065;SDS011;30830;53.704;10.004;2023-11-19T08:52:26;18.15;;;3.72;;
45065;SDS011;30830;53.704;10.004;2023-11-19T08:54:52;19.08;;;4.90;;
45065;SDS011;30830;53.704;10.004;2023-11-19T08:57:17;19.13;;;4.38;;
45065;SDS011;30830;53.704;10.004;2023-11-19T08:59:43;26.65;;;5.40;;
45065;SDS011;30830;53.704;10.004;2023-11-19T09:02:10;25.95;;;5.57;;
45065;SDS011;30830;53.704;10.004;2023-11-19T09:04:36;22.73;;;4.22;;
45065;SDS011;30830;53.704;10.004;2023-11-19T09:07:02;23.30;;;4.50;;
45065;SDS011;30830;53.704;10.004;2023-11-19T09:09:28;26.33;;;5.03;;
45065;SDS011;30830;53.704;10.004;2023-11-19T09:11:54;17.95;;;4.75;;
45065;SDS011;30830;53.704;10.004;2023-11-19T09:14:19;23.55;;;4.75;;
45065;SDS011;30830;53.704;10.004;2023-11-19T09:16:49;18.63;;;5.13;;
45065;SDS011;30830;53.704;10.004;2023-11-19T09:19:14;17.90;;;4.07;;
45065;SDS011;30830;53.704;10.004;2023-11-19T09:21:40;23.70;;;5.85;;
45065;SDS011;30830;53.704;10.004;2023-11-19T09:24:05;13.25;;;3.70;;
45065;SDS011;30830;53.704;10.004;2023-11-19T09:26:32;20.92;;;4.78;;
45065;SDS011;30830;53.704;10.004;2023-11-19T09:28:58;24.23;;;5.35;;
45065;SDS011;30830;53.704;10.004;2023-11-19T09:31:23;18.33;;;4.88;;
45065;SDS011;30830;53.704;10.004;2023-11-19T09:33:49;25.88;;;4.82;;
45065;SDS011;30830;53.704;10.004;2023-11-19T09:36:14;24.95;;;4.45;;
45065;SDS011;30830;53.704;10.004;2023-11-19T09:38:41;22.00;;;4.97;;
45065;SDS011;30830;53.704;10.004;2023-11-19T09:41:09;22.92;;;5.47;;
45065;SDS011;30830;53.704;10.004;2023-11-19T09:43:36;16.42;;;3.88;;
45065;SDS011;30830;53.704;10.004;2023-11-19T09:46:07;19.85;;;5.10;;
45065;SDS011;30830;53.704;10.004;2023-11-19T09:48:36;18.58;;;3.97;;
45065;SDS011;30830;53.704;10.004;2023-11-19T09:51:04;16.88;;;4.50;;
45065;SDS011;30830;53.704;10.004;2023-11-19T09:53:30;14.27;;;5.13;;
45065;SDS011;30830;53.704;10.004;2023-11-19T09:55:56;21.95;;;4.53;;
45065;SDS011;30830;53.704;10.004;2023-11-19T09:58:28;22.80;;;5.13;;
45065;SDS011;30830;53.704;10.004;2023-11-19T10:00:55;22.90;;;4.95;;
45065;SDS011;30830;53.704;10.004;2023-11-19T10:03:20;17.73;;;4.93;;
45065;SDS011;30830;53.704;10.004;2023-11-19T10:05:47;25.33;;;5.20;;
45065;SDS011;30830;53.704;10.004;2023-11-19T10:08:13;18.63;;;5.03;;
45065;SDS011;30830;53.704;10.004;2023-11-19T10:10:39;20.98;;;5.07;;
45065;SDS011;30830;53.704;10.004;2023-11-19T10:13:05;15.88;;;4.10;;
45065;SDS011;30830;53.704;10.004;2023-11-19T10:15:33;26.63;;;4.90;;
45065;SDS011;30830;53.704;10.004;2023-11-19T10:18:01;10.63;;;4.68;;
45065;SDS011;30830;53.704;10.004;2023-11-19T10:20:29;31.23;;;5.03;;
45065;SDS011;30830;53.704;10.004;2023-11-19T10:23:00;23.45;;;4.88;;
45065;SDS011;30830;53.704;10.004;2023-11-19T10:25:26;26.30;;;4.95;;
45065;SDS011;30830;53.704;10.004;2023-11-19T10:27:54;23.85;;;5.60;;
45065;SDS011;30830;53.704;10.004;2023-11-19T10:30:27;23.75;;;5.07;;
45065;SDS011;30830;53.704;10.004;2023-11-19T10:33:02;20.88;;;5.40;;
45065;SDS011;30830;53.704;10.004;2023-11-19T10:35:29;16.20;;;4.75;;
45065;SDS011;30830;53.704;10.004;2023-11-19T10:37:54;27.10;;;5.25;;
45065;SDS011;30830;53.704;10.004;2023-11-19T10:40:20;15.75;;;4.43;;
45065;SDS011;30830;53.704;10.004;2023-11-19T10:42:45;23.90;;;4.78;;
45065;SDS011;30830;53.704;10.004;2023-11-19T10:45:23;17.30;;;4.18;;
45065;SDS011;30830;53.704;10.004;2023-11-19T10:47:50;16.27;;;3.78;;
45065;SDS011;30830;53.704;10.004;2023-11-19T10:50:16;18.65;;;4.45;;
45065;SDS011;30830;53.704;10.004;2023-11-19T10:52:42;19.48;;;4.70;;
45065;SDS011;30830;53.704;10.004;2023-11-19T10:55:09;14.65;;;3.42;;
45065;SDS011;30830;53.704;10.004;2023-11-19T10:57:38;19.77;;;4.15;;
45065;SDS011;30830;53.704;10.004;2023-11-19T11:00:09;33.30;;;11.18;;
45065;SDS011;30830;53.704;10.004;2023-11-19T11:02:39;31.58;;;14.57;;
45065;SDS011;30830;53.704;10.004;2023-11-19T11:05:09;27.20;;;11.10;;
45065;SDS011;30830;53.704;10.004;2023-11-19T11:07:37;23.38;;;9.45;;
45065;SDS011;30830;53.704;10.004;2023-11-19T11:10:05;28.52;;;9.88;;
45065;SDS011;30830;53.704;10.004;2023-11-19T11:12:34;25.88;;;10.98;;
45065;SDS011;30830;53.704;10.004;2023-11-19T11:15:02;24.40;;;8.73;;
45065;SDS011;30830;53.704;10.004;2023-11-19T11:17:30;33.05;;;14.32;;
45065;SDS011;30830;53.704;10.004;2023-11-19T11:19:58;27.90;;;9.57;;
45065;SDS011;30830;53.704;10.004;2023-11-19T11:22:24;22.27;;;8.00;;
45065;SDS011;30830;53.704;10.004;2023-11-19T11:25:02;16.95;;;6.03;;
45065;SDS011;30830;53.704;10.004;2023-11-19T11:33:40;18.95;;;4.85;;
45065;SDS011;30830;53.704;10.004;2023-11-19T11:36:24;17.30;;;5.10;;
45065;SDS011;30830;53.704;10.004;2023-11-19T11:38:50;27.40;;;5.82;;
45065;SDS011;30830;53.704;10.004;2023-11-19T11:41:21;24.83;;;4.82;;
45065;SDS011;30830;53.704;10.004;2023-11-19T11:43:49;23.58;;;4.60;;
45065;SDS011;30830;53.704;10.004;2023-11-19T11:54:09;24.80;;;4.57;;
45065;SDS011;30830;53.704;10.004;2023-11-19T11:57:02;16.90;;;3.70;;
45065;SDS011;30830;53.704;10.004;2023-11-19T11:59:36;14.02;;;3.40;;
45065;SDS011;30830;53.704;10.004;2023-11-19T12:02:03;18.98;;;4.07;;
45065;SDS011;30830;53.704;10.004;2023-11-19T12:04:29;16.75;;;2.95;;
45065;SDS011;30830;53.704;10.004;2023-11-19T12:07:13;11.23;;;3.60;;
45065;SDS011;30830;53.704;10.004;2023-11-19T12:09:41;18.65;;;3.53;;
45065;SDS011;30830;53.704;10.004;2023-11-19T12:12:18;17.95;;;4.18;;
45065;SDS011;30830;53.704;10.004;2023-11-19T12:15:04;21.98;;;3.28;;
45065;SDS011;30830;53.704;10.004;2023-11-19T12:17:41;17.17;;;3.63;;
45065;SDS011;30830;53.704;10.004;2023-11-19T12:20:09;19.77;;;4.30;;
45065;SDS011;30830;53.704;10.004;2023-11-19T12:22:40;22.20;;;5.38;;
45065;SDS011;30830;53.704;10.004;2023-11-19T12:25:07;21.75;;;4.93;;
45065;SDS011;30830;53.704;10.004;2023-11-19T12:27:37;24.20;;;5.50;;
45065;SDS011;30830;53.704;10.004;2023-11-19T12:30:12;20.80;;;4.53;;
45065;SDS011;30830;53.704;10.004;2023-11-19T12:32:41;23.00;;;5.07;;
45065;SDS011;30830;53.704;10.004;2023-11-19T12:35:08;14.50;;;4.55;;
45065;SDS011;30830;53.704;10.004;2023-11-19T12:37:42;16.20;;;4.40;;
45065;SDS011;30830;53.704;10.004;2023-11-19T12:40:12;20.73;;;5.38;;
45065;SDS011;30830;53.704;10.004;2023-11-19T12:42:46;21.60;;;5.05;;
45065;SDS011;30830;53.704;10.004;2023-11-19T12:45:13;24.77;;;5.13;;
45065;SDS011;30830;53.704;10.004;2023-11-19T12:47:39;18.70;;;5.47;;
45065;SDS011;30830;53.704;10.004;2023-11-19T12:50:05;18.73;;;5.22;;
45065;SDS011;30830;53.704;10.004;2023-11-19T12:52:32;21.70;;;4.43;;
45065;SDS011;30830;53.704;10.004;2023-11-19T12:54:59;17.63;;;3.78;;
45065;SDS011;30830;53.704;10.004;2023-11-19T12:57:40;21.83;;;3.95;;
45065;SDS011;30830;53.704;10.004;2023-11-19T13:00:08;19.17;;;4.50;;
45065;SDS011;30830;53.704;10.004;2023-11-19T13:02:46;18.67;;;4.85;;
45065;SDS011;30830;53.704;10.004;2023-11-19T13:07:48;13.73;;;4.15;;
45065;SDS011;30830;53.704;10.004;2023-11-19T13:10:14;28.13;;;4.97;;
45065;SDS011;30830;53.704;10.004;2023-11-19T13:12:40;16.92;;;3.78;;
45065;SDS011;30830;53.704;10.004;2023-11-19T13:15:06;18.77;;;3.90;;
45065;SDS011;30830;53.704;10.004;2023-11-19T13:17:47;19.27;;;4.28;;
45065;SDS011;30830;53.704;10.004;2023-11-19T13:20:12;19.40;;;3.90;;
45065;SDS011;30830;53.704;10.004;2023-11-19T13:22:39;19.50;;;3.95;;
45065;SDS011;30830;53.704;10.004;2023-11-19T13:25:18;18.27;;;3.80;;
45065;SDS011;30830;53.704;10.004;2023-11-19T13:27:45;17.95;;;3.78;;
45065;SDS011;30830;53.704;10.004;2023-11-19T13:30:11;18.00;;;4.43;;
45065;SDS011;30830;53.704;10.004;2023-11-19T13:32:37;17.20;;;4.00;;
45065;SDS011;30830;53.704;10.004;2023-11-19T13:35:04;16.67;;;4.25;;
45065;SDS011;30830;53.704;10.004;2023-11-19T13:37:30;14.60;;;3.78;;
45065;SDS011;30830;53.704;10.004;2023-11-19T13:39:55;18.10;;;4.38;;
45065;SDS011;30830;53.704;10.004;2023-11-19T13:42:21;21.52;;;4.80;;
45065;SDS011;30830;53.704;10.004;2023-11-19T13:44:46;15.48;;;3.22;;
45065;SDS011;30830;53.704;10.004;2023-11-19T13:47:12;20.92;;;4.72;;
45065;SDS011;30830;53.704;10.004;2023-11-19T13:49:38;16.52;;;4.50;;
45065;SDS011;30830;53.704;10.004;2023-11-19T13:52:04;20.95;;;5.25;;
45065;SDS011;30830;53.704;10.004;2023-11-19T13:54:30;24.73;;;4.72;;
45065;SDS011;30830;53.704;10.004;2023-11-19T13:56:56;20.60;;;4.30;;
45065;SDS011;30830;53.704;10.004;2023-11-19T13:59:25;15.00;;;3.95;;
45065;SDS011;30830;53.704;10.004;2023-11-19T14:01:52;23.70;;;5.13;;
45065;SDS011;30830;53.704;10.004;2023-11-19T14:04:17;22.73;;;5.47;;
45065;SDS011;30830;53.704;10.004;2023-11-19T14:06:44;14.82;;;3.75;;
45065;SDS011;30830;53.704;10.004;2023-11-19T14:09:10;15.57;;;4.25;;
45065;SDS011;30830;53.704;10.004;2023-11-19T14:11:36;23.70;;;4.15;;
45065;SDS011;30830;53.704;10.004;2023-11-19T14:14:01;16.40;;;3.97;;
45065;SDS011;30830;53.704;10.004;2023-11-19T14:16:27;30.40;;;5.07;;
45065;SDS011;30830;53.704;10.004;2023-11-19T14:18:52;19.38;;;3.85;;
45065;SDS011;30830;53.704;10.004;2023-11-19T14:21:19;19.92;;;3.97;;
45065;SDS011;30830;53.704;10.004;2023-11-19T14:23:45;15.32;;;4.68;;
45065;SDS011;30830;53.704;10.004;2023-11-19T14:26:11;14.90;;;4.45;;
45065;SDS011;30830;53.704;10.004;2023-11-19T14:28:37;18.30;;;3.95;;
45065;SDS011;30830;53.704;10.004;2023-11-19T14:31:03;17.55;;;3.95;;
45065;SDS011;30830;53.704;10.004;2023-11-19T14:33:29;18.95;;;4.22;;
45065;SDS011;30830;53.704;10.004;2023-11-19T14:35:54;23.48;;;5.25;;
45065;SDS011;30830;53.704;10.004;2023-11-19T14:38:20;21.80;;;5.97;;
45065;SDS011;30830;53.704;10.004;2023-11-19T14:40:46;68.60;;;27.05;;
45065;SDS011;30830;53.704;10.004;2023-11-19T14:43:12;40.17;;;18.40;;
45065;SDS011;30830;53.704;10.004;2023-11-19T14:45:40;25.80;;;10.35;;